South Yarmouth, Massachusetts
Current Conditions -  °F | °C
As of 1:56 PM on Tuesday 21 Oct 2014 (Local Time) from KHYA Reporting Station
Overcast Overcast  
Wind Chill: 62°   Ceiling: 3200
Heat Index: 62°   Visibility: 10mi
Dew Point: 55°   Wind: 9mph
Humidity: 78%   Direction: 120°ESE
Pressure: 29.9"   Gusts: NA
Location:  41.67°N, 70.19°W
Report Text: KHYA 211756Z 12008KT 090V150 10SM OVC032 17/13 A2990 RMK AO2 SLP124 60000 T01670128 10167 20150 56018
Loading
Personal Weather Stations






























Interactive Weather Map
Tropical Storm Tracking
New forecast layout! Learn more

10-Day Weather Forecast

Advertisements
Track Severe Weather on mobile